AQQ10 IFIS: Internet Flight Information System
logo dgac
Martes 21 de Septiembre del 2021
Buscar por aerodromo o helipuerto
Ingrese nombre de aeródromo, localidad o designador OACI:
METAR del 21-09-2021 a las 00:00 UTC
Para mayor información visite www.meteochile.cl
METAR SCNT 210000Z NIL
METAR del 20-09-2021 a las 20:00 UTC
Para mayor información visite www.meteochile.cl
METAR SCNT 202000Z 28023G33KT 9999 SCT060 BKN200 16/04 Q1011
Viento: dirección 280 grados, velocidad 23 nudos, con ráfagas de velocidad máxima de 33Nudos
Visibilidad: 10 km o más
Nubes: Nubosidad parcial a 6000 pies sobre el nivel del aeródromo
Nubes: Nublado a 20000 pies sobre el nivel del aeródromo
Temperatura: 16 °C
Rocío: 4 °C
Humedad_relativa: 45%
Presión: 1011 hPa
METAR del 20-09-2021 a las 19:00 UTC
Para mayor información visite www.meteochile.cl
METAR SCNT 201900Z 28020KT 9999 FEW060 SCT100 15/04 Q1011
Viento: dirección 280 grados, velocidad 20 nudos
Visibilidad: 10 km o más
Nubes: Escasa nubosidad a 6000 pies sobre el nivel del aeródromo
Nubes: Nubosidad parcial a 10000 pies sobre el nivel del aeródromo
Temperatura: 15 °C
Rocío: 4 °C
Humedad_relativa: 48%
Presión: 1011 hPa
METAR del 20-09-2021 a las 18:00 UTC
Para mayor información visite www.meteochile.cl
METAR SCNT 201800Z 29022KT 9999 FEW060 17/04 Q1011
Viento: dirección 290 grados, velocidad 22 nudos
Visibilidad: 10 km o más
Nubes: Escasa nubosidad a 6000 pies sobre el nivel del aeródromo
Temperatura: 17 °C
Rocío: 4 °C
Humedad_relativa: 42%
Presión: 1011 hPa
METAR del 20-09-2021 a las 17:00 UTC
Para mayor información visite www.meteochile.cl
METAR SCNT 201700Z 29026KT 9999 SCT050 16/03 Q1012
Viento: dirección 290 grados, velocidad 26 nudos
Visibilidad: 10 km o más
Nubes: Nubosidad parcial a 5000 pies sobre el nivel del aeródromo
Temperatura: 16 °C
Rocío: 3 °C
Humedad_relativa: 42%
Presión: 1012 hPa
METAR del 20-09-2021 a las 16:00 UTC
Para mayor información visite www.meteochile.cl
METAR SCNT 201600Z 28026G37KT 9999 SCT060 15/04 Q1012
Viento: dirección 280 grados, velocidad 26 nudos, con ráfagas de velocidad máxima de 37Nudos
Visibilidad: 10 km o más
Nubes: Nubosidad parcial a 6000 pies sobre el nivel del aeródromo
Temperatura: 15 °C
Rocío: 4 °C
Humedad_relativa: 48%
Presión: 1012 hPa
METAR del 20-09-2021 a las 15:00 UTC
Para mayor información visite www.meteochile.cl
METAR SCNT 201500Z 28022KT 9999 BKN060 14/03 Q1012
Viento: dirección 280 grados, velocidad 22 nudos
Visibilidad: 10 km o más
Nubes: Nublado a 6000 pies sobre el nivel del aeródromo
Temperatura: 14 °C
Rocío: 3 °C
Humedad_relativa: 47%
Presión: 1012 hPa
METAR del 20-09-2021 a las 14:00 UTC
Para mayor información visite www.meteochile.cl
METAR SCNT 201400Z 28021KT 9999 BKN050 14/03 Q1012
Viento: dirección 280 grados, velocidad 21 nudos
Visibilidad: 10 km o más
Nubes: Nublado a 5000 pies sobre el nivel del aeródromo
Temperatura: 14 °C
Rocío: 3 °C
Humedad_relativa: 47%
Presión: 1012 hPa
METAR del 20-09-2021 a las 13:00 UTC
Para mayor información visite www.meteochile.cl
METAR SCNT 201300Z 22006KT 9999 BKN050 08/04 Q1013
Viento: dirección 220 grados, velocidad 6 nudos
Visibilidad: 10 km o más
Nubes: Nublado a 5000 pies sobre el nivel del aeródromo
Temperatura: 8 °C
Rocío: 4 °C
Humedad_relativa: 76%
Presión: 1013 hPa
METAR del 20-09-2021 a las 12:00 UTC
Para mayor información visite www.meteochile.cl
METAR SCNT 201200Z 33005KT 9999 SCT050 BKN100 06/03 Q1013
Viento: dirección 330 grados, velocidad 5 nudos
Visibilidad: 10 km o más
Nubes: Nubosidad parcial a 5000 pies sobre el nivel del aeródromo
Nubes: Nublado a 10000 pies sobre el nivel del aeródromo
Temperatura: 6 °C
Rocío: 3 °C
Humedad_relativa: 81%
Presión: 1013 hPa